Time;durP1;ratioP1;P1;durP2;ratioP2;P2;SDS_P1;SDS_P2;PMS_P1;PMS_P2;Temp;Humidity;BMP_temperature;BMP_pressure;BME280_temperature;BME280_humidity;BME280_pressure;Samples;Min_cycle;Max_cycle;Signal;HPM_P1;HPM_P2
2021/07/04 00:00:36;;;;;;;11.98;7.43;;;14.80;99.90;;;13.62;100.00;101013.75;5022239;28;21807;-75
2021/07/04 00:03:04;;;;;;;14.43;7.45;;;14.90;99.90;;;13.63;100.00;101026.03;5021023;28;20051;-75
2021/07/04 00:05:50;;;;;;;13.25;7.38;;;14.90;99.90;;;13.71;100.00;101027.34;5012749;28;20079;-75
2021/07/04 00:08:22;;;;;;;12.35;6.93;;;14.90;99.90;;;13.75;100.00;101028.00;4993317;28;20123;-75
2021/07/04 00:11:03;;;;;;;13.23;7.30;;;15.00;99.90;;;13.83;100.00;101024.94;5021047;28;20067;-75
2021/07/04 00:13:31;;;;;;;11.80;7.43;;;15.10;99.90;;;13.90;100.00;101026.31;5004420;28;20063;-75
2021/07/04 00:15:58;;;;;;;14.48;7.22;;;15.20;99.90;;;13.93;100.00;101031.41;5016487;28;20068;-75
2021/07/04 00:18:27;;;;;;;19.23;7.68;;;15.20;99.90;;;13.95;100.00;101030.41;4993110;28;20511;-75
2021/07/04 00:20:57;;;;;;;21.13;7.90;;;15.20;99.90;;;13.96;100.00;101028.63;5029191;28;20062;-75
2021/07/04 00:23:24;;;;;;;14.63;7.90;;;15.30;99.90;;;13.98;100.00;101029.38;5019239;28;20059;-75
2021/07/04 00:25:53;;;;;;;17.77;7.88;;;15.30;99.90;;;13.95;100.00;101025.13;5022418;28;20483;-75
2021/07/04 00:28:22;;;;;;;9.60;6.25;;;15.30;99.90;;;13.97;100.00;101027.66;5018909;28;20056;-75
2021/07/04 00:30:50;;;;;;;10.23;7.05;;;15.30;99.90;;;14.01;100.00;101020.41;5006142;28;20059;-75
2021/07/04 00:33:16;;;;;;;11.82;7.22;;;15.30;99.90;;;14.01;100.00;101023.91;5028869;28;20074;-75
2021/07/04 00:35:42;;;;;;;11.68;7.40;;;15.30;99.90;;;14.01;100.00;101023.91;5021877;28;20570;-75
2021/07/04 00:38:10;;;;;;;12.82;7.22;;;15.30;99.90;;;14.02;100.00;101016.84;5016411;28;20080;-76
2021/07/04 00:40:36;;;;;;;16.35;7.78;;;15.30;99.90;;;14.04;100.00;101023.75;5027339;28;20129;-75
2021/07/04 00:43:07;;;;;;;15.07;8.25;;;15.40;99.90;;;14.10;100.00;101011.94;5019596;28;20021;-75
2021/07/04 00:45:33;;;;;;;15.77;8.20;;;15.40;99.90;;;14.12;100.00;101005.63;5014145;28;20059;-75
2021/07/04 00:48:00;;;;;;;14.18;8.45;;;15.40;99.90;;;14.16;100.00;101011.59;5002613;28;20021;-75
2021/07/04 00:50:30;;;;;;;14.73;7.18;;;15.50;99.90;;;14.20;100.00;101012.28;5021620;28;20070;-75
2021/07/04 00:52:58;;;;;;;11.05;8.07;;;15.50;99.90;;;14.20;100.00;101001.69;5035825;28;20067;-75
2021/07/04 00:55:24;;;;;;;18.27;8.60;;;15.50;99.90;;;14.22;100.00;101010.41;5016840;28;20147;-75
2021/07/04 00:57:51;;;;;;;16.52;7.82;;;15.50;99.90;;;14.25;100.00;101002.28;5001666;28;20075;-75
2021/07/04 01:00:23;;;;;;;18.52;7.72;;;15.50;99.90;;;14.26;100.00;101004.00;5017009;28;20070;-75
2021/07/04 01:02:49;;;;;;;12.10;7.07;;;15.60;99.90;;;14.26;100.00;101004.84;5020253;28;20551;-75
2021/07/04 01:05:31;;;;;;;11.63;7.10;;;15.60;99.90;;;14.26;100.00;101001.34;5018492;28;20067;-75
2021/07/04 01:07:59;;;;;;;17.98;8.27;;;15.60;99.90;;;14.26;100.00;101002.19;5020454;28;20025;-75
2021/07/04 01:10:28;;;;;;;16.63;7.40;;;15.60;99.90;;;14.29;100.00;101006.44;5022076;28;20051;-76
2021/07/04 01:12:57;;;;;;;16.15;7.75;;;15.60;99.90;;;14.28;100.00;101002.09;5020414;28;20534;-75
2021/07/04 01:15:25;;;;;;;11.80;7.47;;;15.60;99.90;;;14.28;100.00;100999.47;5021714;28;20067;-75
2021/07/04 01:17:57;;;;;;;14.23;7.80;;;15.60;99.90;;;14.30;100.00;101002.88;5009414;28;20296;-75
2021/07/04 01:20:26;;;;;;;18.02;7.80;;;15.60;99.90;;;14.31;100.00;101007.22;5020642;28;20085;-75
2021/07/04 01:23:06;;;;;;;17.50;8.52;;;15.60;99.90;;;14.30;100.00;101005.53;5003260;28;20071;-75
2021/07/04 01:25:35;;;;;;;19.92;8.48;;;15.60;99.90;;;14.35;100.00;101000.81;5034814;28;20079;-75
2021/07/04 01:28:03;;;;;;;14.73;8.48;;;15.60;99.90;;;14.36;100.00;100995.44;5019102;28;20063;-75
2021/07/04 01:30:30;;;;;;;12.95;7.72;;;15.60;99.90;;;14.33;100.00;100992.94;5020389;28;20052;-75
2021/07/04 01:32:57;;;;;;;19.00;8.88;;;15.60;99.90;;;14.32;100.00;100996.53;5005175;28;20056;-75
2021/07/04 01:35:23;;;;;;;12.57;8.27;;;15.60;99.90;;;14.32;100.00;100996.53;5018708;28;20083;-75
2021/07/04 01:37:49;;;;;;;19.25;7.63;;;15.60;99.90;;;14.34;100.00;100999.97;5015150;28;20079;-75
2021/07/04 01:40:17;;;;;;;11.02;7.47;;;15.60;99.90;;;14.34;100.00;100999.06;5025228;28;20060;-75
2021/07/04 01:42:45;;;;;;;14.30;7.60;;;15.60;99.90;;;14.30;100.00;100995.78;5021571;28;20055;-76
2021/07/04 01:45:16;;;;;;;12.65;7.78;;;15.60;99.90;;;14.31;100.00;100996.63;5024627;28;20381;-75
2021/07/04 01:47:45;;;;;;;15.52;6.90;;;15.60;99.90;;;14.31;100.00;100993.97;5017107;28;20095;-75
2021/07/04 01:50:21;;;;;;;14.30;7.38;;;15.60;99.90;;;14.30;100.00;100994.94;5015547;28;20181;-75
2021/07/04 01:52:47;;;;;;;15.70;8.07;;;15.60;99.90;;;14.28;100.00;100994.16;5021985;28;20074;-75
2021/07/04 01:55:16;;;;;;;15.48;7.63;;;15.60;99.90;;;14.27;100.00;100989.78;5022785;28;20087;-75
2021/07/04 01:57:44;;;;;;;11.93;6.65;;;15.60;99.90;;;14.27;100.00;100988.00;5008251;28;20080;-76
2021/07/04 02:00:21;;;;;;;11.20;7.10;;;15.60;99.90;;;14.30;100.00;100992.28;5025139;28;20063;-75
2021/07/04 02:02:52;;;;;;;13.10;7.65;;;15.60;99.90;;;14.31;100.00;100988.69;5014628;28;20068;-75
2021/07/04 02:05:19;;;;;;;16.10;7.38;;;15.60;99.90;;;14.32;100.00;100990.41;5032119;28;20691;-76
2021/07/04 02:07:45;;;;;;;11.38;6.90;;;15.60;99.90;;;14.31;100.00;100992.16;5038837;28;20059;-75
2021/07/04 02:10:19;;;;;;;14.35;6.40;;;15.60;99.90;;;14.34;100.00;100988.47;5023883;28;20058;-75
2021/07/04 02:12:45;;;;;;;12.93;7.00;;;15.70;99.90;;;14.35;100.00;101000.81;5005371;28;20045;-75
2021/07/04 02:15:15;;;;;;;15.98;7.45;;;15.60;99.90;;;14.33;100.00;100992.94;5008130;28;20051;-75
2021/07/04 02:17:42;;;;;;;10.23;6.40;;;15.60;99.90;;;14.32;100.00;100990.41;5023240;28;20067;-76
2021/07/04 02:20:25;;;;;;;13.35;6.75;;;15.60;99.90;;;14.34;100.00;100993.78;5007512;28;20062;-75
2021/07/04 02:22:51;;;;;;;8.80;5.80;;;15.60;99.90;;;14.36;100.00;100998.06;5022302;28;20055;-75
2021/07/04 02:25:17;;;;;;;8.68;5.97;;;15.60;99.90;;;14.35;100.00;100985.75;5032073;28;20021;-76
2021/07/04 02:27:43;;;;;;;11.90;6.78;;;15.70;99.90;;;14.38;100.00;100989.16;5021175;28;20063;-76
2021/07/04 02:30:10;;;;;;;11.35;6.75;;;15.70;99.90;;;14.39;100.00;100986.44;5023899;28;20148;-76
2021/07/04 02:32:36;;;;;;;9.05;6.07;;;15.70;99.90;;;14.41;100.00;100989.00;5005450;28;20049;-76
2021/07/04 02:35:06;;;;;;;13.38;7.47;;;15.70;99.90;;;14.40;100.00;100982.84;5021945;28;20070;-76
2021/07/04 02:37:32;;;;;;;16.77;7.20;;;15.70;99.90;;;14.41;100.00;100981.91;5022743;28;20113;-75
2021/07/04 02:39:58;;;;;;;14.23;6.80;;;15.70;99.90;;;14.44;100.00;100986.16;5020166;28;20520;-75
2021/07/04 02:42:24;;;;;;;13.95;6.93;;;15.70;99.90;;;14.44;100.00;100984.38;5024802;28;20059;-76
2021/07/04 02:44:50;;;;;;;13.00;7.45;;;15.70;99.90;;;14.45;100.00;100979.91;5006755;28;20059;-76
2021/07/04 02:47:16;;;;;;;12.05;7.05;;;15.60;99.90;;;14.44;100.00;100983.50;5023063;28;20577;-75
2021/07/04 02:49:42;;;;;;;10.27;7.03;;;15.70;99.90;;;14.44;100.00;100984.38;5023399;28;20082;-75
2021/07/04 02:52:08;;;;;;;14.88;6.50;;;15.70;99.90;;;14.50;100.00;100972.56;5006797;28;20057;-75
2021/07/04 02:54:34;;;;;;;13.55;7.22;;;15.70;99.90;;;14.53;100.00;100967.06;5023249;28;20017;-75
2021/07/04 02:57:05;;;;;;;9.52;5.95;;;15.80;99.90;;;14.56;100.00;100965.13;5021763;28;20053;-75
2021/07/04 02:59:33;;;;;;;11.18;6.50;;;15.80;99.90;;;14.64;100.00;100969.97;5026012;28;20686;-76
2021/07/04 03:01:59;;;;;;;12.18;7.18;;;15.90;99.90;;;14.67;100.00;100971.59;5021342;28;20059;-76
2021/07/04 03:04:25;;;;;;;13.85;6.63;;;15.90;99.90;;;14.70;100.00;100974.91;5002558;28;20049;-76
2021/07/04 03:06:51;;;;;;;12.07;6.10;;;15.90;99.90;;;14.75;100.00;100972.84;5022094;28;20066;-75
2021/07/04 03:09:17;;;;;;;12.70;6.10;;;16.00;99.90;;;14.81;100.00;100968.94;5022008;28;20065;-75
2021/07/04 03:11:43;;;;;;;14.82;6.95;;;16.10;99.90;;;14.88;100.00;100965.00;5023775;28;20079;-76
2021/07/04 03:14:09;;;;;;;13.63;7.15;;;16.10;99.90;;;14.94;100.00;100972.56;5022114;28;20056;-76
2021/07/04 03:16:35;;;;;;;17.70;6.63;;;16.20;99.90;;;15.03;100.00;100967.66;5004158;28;20128;-76
2021/07/04 03:19:01;;;;;;;11.57;7.00;;;16.30;99.90;;;15.12;100.00;100975.06;5021871;28;20067;-76
2021/07/04 03:21:26;;;;;;;14.13;7.75;;;16.40;99.90;;;15.20;100.00;100966.59;5014887;28;20198;-75
2021/07/04 03:23:52;;;;;;;11.35;6.57;;;16.50;99.90;;;15.33;100.00;100962.22;5005783;28;20071;-75
2021/07/04 03:26:21;;;;;;;23.92;8.25;;;16.70;99.90;;;15.43;100.00;100963.38;5020919;28;20112;-76
2021/07/04 03:28:47;;;;;;;12.50;6.38;;;16.70;99.90;;;15.51;100.00;100966.41;5021012;28;20097;-76
2021/07/04 03:31:13;;;;;;;11.07;6.60;;;16.90;99.90;;;15.65;100.00;100967.31;5019141;28;20033;-76
2021/07/04 03:33:39;;;;;;;13.63;6.45;;;17.00;99.90;;;15.76;100.00;100968.34;5003427;28;20029;-76
2021/07/04 03:36:05;;;;;;;9.80;6.32;;;17.00;99.90;;;15.83;100.00;100966.16;5009802;28;20032;-76
2021/07/04 03:38:32;;;;;;;11.27;5.95;;;17.10;99.90;;;15.91;100.00;100965.66;5034992;28;20497;-76
2021/07/04 03:40:58;;;;;;;9.15;5.55;;;17.20;99.90;;;15.97;100.00;100971.41;5031827;28;20258;-75
2021/07/04 03:43:25;;;;;;;9.80;5.65;;;17.30;99.90;;;16.07;100.00;100963.72;5028694;28;20400;-75
2021/07/04 03:45:52;;;;;;;10.48;5.95;;;17.30;99.90;;;16.18;100.00;100973.63;5021323;28;20013;-76
2021/07/04 03:48:18;;;;;;;10.25;5.85;;;17.60;99.90;;;16.35;100.00;100973.34;5039267;28;20025;-76
2021/07/04 03:50:44;;;;;;;9.45;5.20;;;17.70;99.90;;;16.48;100.00;100964.53;5020580;28;20044;-76
2021/07/04 03:53:11;;;;;;;8.15;5.55;;;17.80;99.90;;;16.74;100.00;100971.63;5023103;28;20082;-76
2021/07/04 03:55:38;;;;;;;9.73;5.68;;;17.90;99.90;;;16.57;100.00;100971.91;5025279;28;20041;-75
2021/07/04 03:58:04;;;;;;;11.43;5.57;;;17.90;99.90;;;16.61;100.00;100973.41;5042886;28;20056;-75
2021/07/04 04:00:31;;;;;;;11.80;5.93;;;18.00;99.90;;;16.83;100.00;100972.81;5020453;28;20029;-76
2021/07/04 04:02:57;;;;;;;9.80;5.50;;;18.20;99.90;;;16.91;100.00;100959.84;5014722;28;20456;-76
2021/07/04 04:05:23;;;;;;;13.10;5.50;;;18.30;99.90;;;17.07;100.00;100964.94;5018906;28;20024;-76
2021/07/04 04:07:49;;;;;;;10.57;4.90;;;18.20;99.90;;;16.81;98.79;100962.28;5013373;28;20029;-75
2021/07/04 04:10:15;;;;;;;8.55;5.05;;;18.20;99.90;;;16.87;99.54;100963.69;5012883;28;20029;-75
2021/07/04 04:12:41;;;;;;;10.23;5.13;;;18.20;99.90;;;16.92;99.48;100966.84;5022150;28;20018;-76
2021/07/04 04:15:10;;;;;;;6.57;4.18;;;18.20;99.90;;;16.86;99.03;100959.28;5022496;28;20029;-76
2021/07/04 04:17:38;;;;;;;10.18;4.70;;;18.30;99.90;;;17.00;97.69;100964.50;4999993;28;20087;-76
2021/07/04 04:20:06;;;;;;;7.38;4.38;;;18.30;99.90;;;16.98;97.31;100966.44;5020482;28;20195;-75
2021/07/04 04:22:33;;;;;;;9.13;4.45;;;18.20;99.90;;;17.01;96.69;100971.53;5001863;28;20037;-76
2021/07/04 04:24:59;;;;;;;7.30;4.40;;;18.10;99.90;;;16.98;96.03;100961.09;5031520;28;20025;-76
2021/07/04 04:27:25;;;;;;;8.30;4.65;;;18.10;99.90;;;16.97;95.73;100970.03;5017347;28;20120;-76
2021/07/04 04:29:51;;;;;;;6.28;3.83;;;18.20;99.90;;;17.10;96.36;100967.38;5014285;28;20120;-76
2021/07/04 04:32:17;;;;;;;6.78;3.90;;;18.30;99.90;;;17.13;94.71;100975.16;5003005;28;20033;-76
2021/07/04 04:34:43;;;;;;;8.40;4.20;;;18.30;99.90;;;17.20;95.00;100980.88;5018763;28;20159;-75
2021/07/04 04:37:09;;;;;;;6.80;3.85;;;18.40;99.90;;;17.27;95.21;100982.16;5020366;28;20048;-76
2021/07/04 04:39:36;;;;;;;7.95;4.07;;;18.20;99.90;;;16.89;97.78;100975.06;5003788;28;20029;-75
2021/07/04 04:42:02;;;;;;;7.47;3.90;;;18.10;99.90;;;16.84;97.27;100973.66;5011999;28;20028;-75
2021/07/04 04:44:28;;;;;;;8.35;3.05;;;18.10;99.90;;;16.87;96.31;100971.66;5019361;28;20403;-75
2021/07/04 04:46:54;;;;;;;6.88;4.60;;;18.10;99.90;;;16.66;97.46;100981.91;5037475;28;20428;-75
2021/07/04 04:49:20;;;;;;;7.05;4.40;;;17.90;99.90;;;16.57;98.88;100983.38;5032340;28;20086;-76
2021/07/04 04:51:46;;;;;;;5.50;3.58;;;18.00;99.90;;;16.81;98.35;100986.22;5004619;28;20473;-76
2021/07/04 04:54:12;;;;;;;7.20;3.78;;;18.00;99.90;;;16.76;97.95;100990.97;5019261;28;20040;-76
2021/07/04 04:56:39;;;;;;;7.03;4.07;;;17.80;99.90;;;16.56;98.63;100981.66;5019460;28;20561;-75
2021/07/04 04:59:05;;;;;;;8.27;4.00;;;17.80;99.90;;;16.63;99.10;100982.13;5021147;28;20045;-76
2021/07/04 05:01:31;;;;;;;6.88;3.35;;;18.00;99.90;;;16.79;97.26;100979.28;5028910;28;20123;-75
2021/07/04 05:03:57;;;;;;;5.90;3.70;;;18.00;99.90;;;16.85;97.38;100986.88;5004181;28;20021;-75
2021/07/04 05:06:23;;;;;;;6.68;3.83;;;18.00;99.90;;;16.90;98.00;100983.88;5022189;28;20159;-76
2021/07/04 05:08:50;;;;;;;4.28;3.40;;;18.10;99.90;;;16.94;98.31;101004.84;5015950;28;20025;-76
2021/07/04 05:11:17;;;;;;;12.98;4.20;;;18.20;99.90;;;17.00;98.20;100991.13;5024646;28;20033;-75
2021/07/04 05:13:42;;;;;;;5.40;3.45;;;18.20;99.90;;;17.02;97.97;100994.53;5023500;28;20108;-75
2021/07/04 05:16:09;;;;;;;8.73;4.20;;;18.30;99.90;;;17.13;97.68;100990.28;5025749;28;20393;-76
2021/07/04 05:18:35;;;;;;;6.32;3.70;;;18.30;99.90;;;17.15;97.56;100988.34;5022716;28;20557;-75
2021/07/04 05:21:03;;;;;;;7.55;3.55;;;18.30;99.90;;;17.22;97.22;100990.47;5024395;28;20029;-76
2021/07/04 05:23:29;;;;;;;6.43;3.65;;;18.30;99.90;;;17.19;96.69;100992.47;5025006;28;20476;-76
2021/07/04 05:25:58;;;;;;;6.03;3.92;;;18.30;99.90;;;17.24;96.30;100981.53;5006968;28;20025;-76
2021/07/04 05:28:30;;;;;;;6.25;4.18;;;18.40;99.90;;;17.43;96.55;100979.28;5008589;28;20055;-76
2021/07/04 05:30:56;;;;;;;9.55;4.43;;;18.60;99.90;;;17.66;94.56;100992.72;5025037;28;20043;-75
2021/07/04 05:33:23;;;;;;;7.95;3.70;;;18.80;99.90;;;17.78;93.77;100989.19;5021455;28;20243;-75
2021/07/04 05:35:50;;;;;;;7.22;3.90;;;18.70;99.90;;;17.77;93.88;100990.97;5006380;28;20037;-75
2021/07/04 05:38:20;;;;;;;6.97;3.63;;;18.90;99.90;;;17.90;93.64;100996.28;5008389;28;20137;-75
2021/07/04 05:40:52;;;;;;;9.82;3.75;;;19.00;99.90;;;18.01;93.26;100999.03;5021699;28;20032;-75
2021/07/04 05:43:18;;;;;;;7.03;3.83;;;19.10;99.90;;;17.99;93.33;100994.75;5022901;28;20047;-76
2021/07/04 05:45:45;;;;;;;6.20;3.65;;;19.20;99.90;;;18.15;93.53;100994.50;5023862;28;20049;-76
2021/07/04 05:48:11;;;;;;;6.57;3.72;;;19.20;99.90;;;17.99;93.98;101003.63;5007800;28;20124;-76
2021/07/04 05:50:37;;;;;;;5.90;3.58;;;19.10;99.90;;;18.04;91.73;101000.63;5024394;28;20036;-76
2021/07/04 05:53:03;;;;;;;5.65;3.28;;;18.90;99.90;;;17.95;92.93;101002.16;5007901;28;20492;-75
2021/07/04 05:55:29;;;;;;;9.18;3.42;;;19.00;99.90;;;17.96;91.63;101003.00;5023651;28;20087;-76
2021/07/04 05:57:55;;;;;;;6.60;3.42;;;19.00;99.90;;;17.96;91.07;101008.31;5033026;28;20037;-75
2021/07/04 06:00:21;;;;;;;6.70;3.67;;;19.00;99.90;;;17.99;92.50;101006.31;5025346;28;20025;-76
2021/07/04 06:02:47;;;;;;;5.97;2.90;;;19.20;99.90;;;18.10;91.95;101008.19;5048548;28;20076;-76
2021/07/04 06:05:14;;;;;;;5.70;2.85;;;19.20;99.90;;;18.10;90.06;101008.19;5005620;28;20071;-75
2021/07/04 06:07:40;;;;;;;4.35;2.97;;;19.20;99.90;;;18.12;90.53;101006.25;5022555;28;20488;-75
2021/07/04 06:10:07;;;;;;;6.32;2.78;;;19.30;99.90;;;18.15;90.63;101006.00;5008772;28;20477;-76
2021/07/04 06:12:33;;;;;;;8.50;3.17;;;19.30;99.90;;;18.08;91.14;101009.22;5021562;28;20025;-75
2021/07/04 06:14:58;;;;;;;6.25;3.13;;;19.20;99.90;;;18.10;91.44;101018.84;5025708;28;20021;-75
2021/07/04 06:17:24;;;;;;;4.07;3.00;;;19.20;99.90;;;18.01;92.04;101011.50;5021140;28;20037;-75
2021/07/04 06:19:50;;;;;;;8.43;3.50;;;19.10;99.90;;;17.99;91.08;101006.31;5024377;28;20025;-76
2021/07/04 06:22:16;;;;;;;5.57;3.15;;;19.00;99.90;;;17.91;91.66;101005.16;5023546;28;20039;-75
2021/07/04 06:24:42;;;;;;;5.07;3.03;;;18.90;99.90;;;17.85;91.57;101008.25;5022855;28;20439;-76
2021/07/04 06:27:08;;;;;;;5.55;2.83;;;18.80;99.90;;;17.79;92.59;101005.03;5003975;28;20129;-76
2021/07/04 06:29:34;;;;;;;5.25;3.67;;;18.90;99.90;;;17.80;92.11;101009.41;5015137;28;20082;-76
2021/07/04 06:32:00;;;;;;;7.20;3.67;;;18.90;99.90;;;17.72;92.61;101011.78;5035031;28;20073;-75
2021/07/04 06:34:26;;;;;;;4.25;2.97;;;18.90;99.90;;;17.71;93.45;101004.75;5005079;28;20037;-76
2021/07/04 06:36:52;;;;;;;6.82;3.83;;;18.90;99.90;;;17.69;93.57;101005.81;5010743;28;20112;-76
2021/07/04 06:39:18;;;;;;;9.00;3.28;;;18.90;99.90;;;17.73;93.28;101002.84;5022034;28;20500;-75
2021/07/04 06:41:43;;;;;;;5.47;3.35;;;19.00;99.90;;;17.79;92.54;101001.53;5038346;28;20036;-75
2021/07/04 06:44:09;;;;;;;3.70;2.97;;;18.90;99.90;;;17.83;92.02;101001.22;5029094;28;20037;-75
2021/07/04 06:46:35;;;;;;;4.65;3.15;;;18.90;99.90;;;17.85;91.54;101002.94;5034880;28;20025;-75
2021/07/04 06:49:01;;;;;;;6.95;3.65;;;18.80;99.90;;;17.76;90.67;100991.94;5006687;28;20061;-75
2021/07/04 06:51:29;;;;;;;6.30;2.92;;;18.80;99.90;;;17.88;90.69;100997.38;5007538;28;20047;-75
2021/07/04 06:53:58;;;;;;;5.10;2.88;;;18.90;99.90;;;17.96;90.39;101000.34;5004901;28;20040;-75
2021/07/04 06:56:24;;;;;;;7.05;3.20;;;19.00;99.90;;;18.08;89.09;101007.44;5023681;28;20063;-75
2021/07/04 06:58:50;;;;;;;8.45;3.28;;;18.90;99.90;;;17.89;89.75;101005.25;5020298;28;20036;-75
2021/07/04 07:01:16;;;;;;;8.55;3.72;;;18.90;99.90;;;18.02;89.99;101008.72;5003206;28;20453;-75
2021/07/04 07:03:42;;;;;;;4.32;3.38;;;19.20;99.90;;;18.18;91.13;101003.09;5009993;28;20099;-76
2021/07/04 07:06:08;;;;;;;6.32;3.20;;;19.40;99.90;;;18.38;90.16;101006.09;4995875;28;20021;-75
2021/07/04 07:08:34;;;;;;;5.45;3.00;;;19.60;99.90;;;18.56;89.40;101009.22;5005061;28;20037;-75
2021/07/04 07:11:00;;;;;;;6.65;2.90;;;19.80;99.90;;;18.75;89.29;101004.19;5032135;28;20132;-75
2021/07/04 07:13:26;;;;;;;6.20;3.63;;;20.00;99.90;;;18.93;87.82;101001.09;5020826;28;20028;-75
2021/07/04 07:15:52;;;;;;;4.13;2.85;;;20.10;99.90;;;19.01;86.41;100994.19;5024076;28;20029;-75
2021/07/04 07:18:18;;;;;;;4.85;2.90;;;20.20;99.90;;;19.13;85.79;100996.84;5021478;28;20047;-75
2021/07/04 07:20:43;;;;;;;7.15;2.97;;;20.40;99.90;;;18.90;85.44;100996.84;5021096;28;20565;-75
2021/07/04 07:23:10;;;;;;;6.20;2.83;;;20.30;99.90;;;19.06;86.29;100997.34;5023435;28;20029;-75
2021/07/04 07:25:36;;;;;;;5.97;3.47;;;20.30;99.90;;;19.17;85.52;101003.66;5021407;28;20025;-75
2021/07/04 07:28:03;;;;;;;5.45;2.97;;;20.40;99.90;;;19.24;83.97;101000.41;5004883;28;20026;-76
2021/07/04 07:30:29;;;;;;;6.70;3.67;;;20.20;99.90;;;19.11;83.70;100996.97;5021803;28;20116;-75
2021/07/04 07:32:55;;;;;;;5.70;3.50;;;20.00;99.90;;;19.05;84.09;100998.31;5023402;28;22223;-76
2021/07/04 07:35:21;;;;;;;4.97;3.17;;;19.90;99.90;;;18.89;84.61;100996.94;5020577;28;21218;-76
2021/07/04 07:37:49;;;;;;;4.68;3.10;;;19.90;99.90;;;18.99;85.44;100997.94;5031425;28;20111;-76
2021/07/04 07:40:16;;;;;;;5.10;3.42;;;19.90;99.90;;;19.03;84.77;100996.75;5020849;28;20520;-75
2021/07/04 07:42:41;;;;;;;5.18;3.50;;;20.10;99.90;;;18.88;85.45;100992.56;5021456;28;20121;-76
2021/07/04 07:45:09;;;;;;;7.18;3.78;;;20.10;99.90;;;19.03;87.36;101000.25;5004484;28;20033;-75
2021/07/04 07:47:37;;;;;;;5.50;3.50;;;20.40;99.90;;;19.33;86.53;100997.94;5037390;28;20590;-75
2021/07/04 07:50:05;;;;;;;6.90;3.53;;;20.70;99.90;;;19.55;85.58;100986.44;5022463;28;20025;-75
2021/07/04 07:52:31;;;;;;;7.88;3.60;;;20.80;99.90;;;19.65;84.50;100988.22;5021292;28;20031;-76
2021/07/04 07:54:57;;;;;;;6.47;4.25;;;20.90;99.90;;;19.42;84.47;100989.22;5022103;28;20021;-76
2021/07/04 07:57:23;;;;;;;6.28;4.25;;;20.90;99.90;;;19.50;83.92;100985.94;5005159;28;20055;-76
2021/07/04 07:59:49;;;;;;;8.07;4.10;;;20.90;99.90;;;19.57;83.85;100985.31;5021884;28;20345;-76
2021/07/04 08:02:16;;;;;;;8.18;3.58;;;21.00;99.90;;;19.92;83.80;100983.47;5013713;28;20077;-75
2021/07/04 08:04:43;;;;;;;6.40;3.58;;;21.20;99.90;;;19.98;81.48;100982.97;5035491;28;20388;-75
2021/07/04 08:07:09;;;;;;;7.50;3.70;;;21.30;99.90;;;20.08;80.86;100982.06;5013172;28;20100;-75
2021/07/04 08:09:35;;;;;;;8.18;3.88;;;21.30;99.90;;;19.92;82.17;100983.47;5031528;28;20029;-75
2021/07/04 08:12:01;;;;;;;10.07;3.30;;;21.00;99.90;;;19.87;80.87;100984.69;5021691;28;20388;-75
2021/07/04 08:14:28;;;;;;;8.05;4.28;;;20.80;99.90;;;18.99;84.34;100987.28;5004663;28;20040;-75
2021/07/04 08:16:54;;;;;;;6.18;3.67;;;20.60;99.90;;;19.47;82.86;100979.84;5019255;28;20021;-75
2021/07/04 08:19:20;;;;;;;8.70;3.65;;;20.90;99.90;;;19.94;80.22;100978.84;5022421;28;20171;-75
2021/07/04 08:21:46;;;;;;;7.65;3.97;;;21.10;99.90;;;19.43;81.91;100977.56;5019911;28;20389;-75
2021/07/04 08:24:11;;;;;;;8.02;4.15;;;20.80;99.90;;;19.26;83.40;100985.13;5005333;28;20025;-75
2021/07/04 08:26:38;;;;;;;6.55;3.75;;;20.90;99.90;;;19.78;82.63;100974.72;5020042;28;20057;-75
2021/07/04 08:29:04;;;;;;;6.88;3.70;;;21.20;99.90;;;20.13;79.02;100975.47;5021481;28;20032;-75
2021/07/04 08:31:31;;;;;;;4.93;3.22;;;21.30;99.90;;;20.13;81.93;100973.69;5011713;28;20473;-75
2021/07/04 08:33:57;;;;;;;5.20;3.15;;;21.40;99.90;;;20.41;80.13;100974.91;5004393;28;20534;-76
2021/07/04 08:36:25;;;;;;;6.85;3.50;;;21.70;99.90;;;20.64;77.61;100977.47;5021762;28;20037;-75
2021/07/04 08:38:52;;;;;;;6.43;3.50;;;21.90;99.90;;;20.78;76.97;100973.63;5012255;28;20135;-75
2021/07/04 08:41:19;;;;;;;6.75;3.10;;;21.60;99.90;;;20.85;74.93;100967.59;5031772;28;20034;-76
2021/07/04 08:43:45;;;;;;;8.13;3.10;;;21.80;99.90;;;20.79;77.37;100973.47;5020954;28;20021;-75
2021/07/04 08:46:11;;;;;;;8.20;3.40;;;21.90;99.90;;;20.46;78.88;100966.47;5020722;28;20029;-75
2021/07/04 08:48:43;;;;;;;4.60;3.35;;;21.90;99.90;;;20.64;77.58;100972.13;5005151;28;20372;-75
2021/07/04 08:51:10;;;;;;;8.20;3.55;;;22.20;99.90;;;20.85;77.56;100964.94;5001489;28;20029;-75
2021/07/04 08:53:38;;;;;;;5.90;3.22;;;22.50;99.90;;;21.25;74.65;100963.28;5019704;28;20040;-75
2021/07/04 08:56:05;;;;;;;7.97;3.63;;;22.50;99.90;;;20.68;77.01;100955.66;5005648;28;21694;-75
2021/07/04 08:58:31;;;;;;;8.07;3.70;;;22.40;99.90;;;21.15;75.74;100957.91;5017859;28;20082;-75
2021/07/04 09:01:15;;;;;;;6.75;3.05;;;22.60;99.90;;;21.47;74.49;100952.41;4990709;28;20108;-76
2021/07/04 09:04:25;;;;;;;5.03;3.05;;;22.70;99.90;;;21.84;75.41;100948.25;4984901;28;24950;-76
2021/07/04 09:06:53;;;;;;;5.50;2.97;;;22.80;99.90;;;21.45;75.25;100948.16;4958901;28;20041;-75
2021/07/04 09:09:46;;;;;;;6.72;3.28;;;22.70;99.90;;;21.33;73.75;100950.06;4979694;28;20043;-75
2021/07/04 09:12:55;;;;;;;;;;;;;;;;;;;;;
2021/07/04 09:15:28;;;;;;;8.90;3.47;;;22.60;99.90;;;21.61;72.77;100942.28;4980750;28;21694;-76
2021/07/04 09:17:59;;;;;;;6.03;3.40;;;22.70;99.90;;;21.25;74.35;100942.72;4949471;28;21516;-75
2021/07/04 09:20:37;;;;;;;7.10;3.55;;;23.00;99.90;;;22.26;69.97;100948.00;4978081;28;20065;-75
2021/07/04 09:23:32;;;;;;;10.25;3.92;;;23.60;99.90;;;22.79;68.68;100943.97;4965474;28;20104;-76
2021/07/04 09:26:48;;;;;;;11.40;3.60;;;23.80;99.90;;;22.49;68.47;100940.50;4974208;28;20479;-76
2021/07/04 09:30:11;;;;;;;6.53;3.75;;;23.60;99.90;;;21.81;68.67;100946.66;4969867;28;20697;-76
2021/07/04 09:33:40;;;;;;;6.25;3.78;;;23.10;99.90;;;22.15;73.55;100935.53;4975412;28;20048;-75
2021/07/04 09:36:53;;;;;;;7.97;3.50;;;23.30;99.90;;;22.03;71.34;100933.97;4985477;28;20118;-75
2021/07/04 09:40:03;;;;;;;5.70;3.25;;;23.50;99.90;;;22.43;75.10;100939.22;4968366;28;20785;-75
2021/07/04 09:43:24;;;;;;;5.82;3.80;;;23.40;99.90;;;21.38;73.52;100938.94;4955572;28;20434;-76
2021/07/04 09:46:47;;;;;;;4.85;3.45;;;23.40;99.90;;;22.26;67.68;100934.59;4970454;28;20029;-75
2021/07/04 09:50:13;;;;;;;5.47;3.03;;;23.40;99.90;;;23.18;64.79;100928.59;4986320;28;20044;-75
2021/07/04 09:53:20;;;;;;;5.03;2.78;;;24.00;99.90;;;22.71;69.85;100932.09;4983882;28;20124;-75
2021/07/04 09:57:07;;;;;;;5.63;2.80;;;23.80;99.90;;;22.99;69.58;100918.72;4978519;28;20060;-75
2021/07/04 10:00:35;;;;;;;9.38;3.25;;;24.20;99.90;;;21.59;69.03;100926.31;4975349;28;20539;-76
2021/07/04 10:03:52;;;;;;;6.83;3.10;;;23.60;99.90;;;21.66;67.22;100921.25;4989998;28;20307;-75
2021/07/04 10:07:24;;;;;;;6.28;2.53;;;23.20;99.90;;;22.02;68.89;100908.19;4967312;28;20365;-76
2021/07/04 10:11:06;;;;;;;7.68;2.58;;;23.70;99.90;;;23.20;67.42;100907.78;4978596;28;20069;-76
2021/07/04 10:14:55;;;;;;;6.20;2.95;;;24.00;99.90;;;21.40;70.15;100911.03;4977794;28;20048;-76
2021/07/04 10:18:39;;;;;;;8.50;2.80;;;23.20;99.90;;;22.39;68.62;100910.97;4975549;28;20069;-75
2021/07/04 10:22:02;;;;;;;6.80;2.45;;;23.40;99.90;;;21.68;65.75;100903.22;4981484;28;20045;-78
2021/07/04 10:25:05;;;;;;;6.60;3.00;;;23.40;99.90;;;22.61;67.67;100909.81;4972907;28;20041;-76
2021/07/04 10:28:27;;;;;;;5.20;3.03;;;23.50;99.90;;;22.56;68.73;100912.09;4958764;28;20036;-76